sensor_id;sensor_type;location;lat;lon;timestamp;P1;durP1;ratioP1;P2;durP2;ratioP2
77828;SDS011;67019;51.034;3.728;2023-05-07T00:00:13;12.98;;;4.53;;
77828;SDS011;67019;51.034;3.728;2023-05-07T00:02:43;10.30;;;4.53;;
77828;SDS011;67019;51.034;3.728;2023-05-07T00:05:11;12.18;;;4.53;;
77828;SDS011;67019;51.034;3.728;2023-05-07T00:07:38;15.70;;;4.45;;
77828;SDS011;67019;51.034;3.728;2023-05-07T00:10:06;9.68;;;4.17;;
77828;SDS011;67019;51.034;3.728;2023-05-07T00:12:34;13.48;;;3.87;;
77828;SDS011;67019;51.034;3.728;2023-05-07T00:15:02;13.45;;;4.65;;
77828;SDS011;67019;51.034;3.728;2023-05-07T00:17:30;12.55;;;4.20;;
77828;SDS011;67019;51.034;3.728;2023-05-07T00:19:59;13.25;;;4.10;;
77828;SDS011;67019;51.034;3.728;2023-05-07T00:22:27;17.98;;;3.87;;
77828;SDS011;67019;51.034;3.728;2023-05-07T00:24:55;11.88;;;4.28;;
77828;SDS011;67019;51.034;3.728;2023-05-07T00:27:24;22.50;;;6.05;;
77828;SDS011;67019;51.034;3.728;2023-05-07T00:29:52;12.90;;;4.12;;
77828;SDS011;67019;51.034;3.728;2023-05-07T00:32:19;12.65;;;3.90;;
77828;SDS011;67019;51.034;3.728;2023-05-07T00:34:47;15.10;;;4.28;;
77828;SDS011;67019;51.034;3.728;2023-05-07T00:37:16;10.35;;;3.83;;
77828;SDS011;67019;51.034;3.728;2023-05-07T00:39:44;17.90;;;5.33;;
77828;SDS011;67019;51.034;3.728;2023-05-07T00:42:11;11.33;;;4.30;;
77828;SDS011;67019;51.034;3.728;2023-05-07T00:44:40;12.73;;;3.87;;
77828;SDS011;67019;51.034;3.728;2023-05-07T00:47:08;12.00;;;3.80;;
77828;SDS011;67019;51.034;3.728;2023-05-07T00:49:41;13.40;;;4.05;;
77828;SDS011;67019;51.034;3.728;2023-05-07T00:54:34;7.95;;;3.50;;
77828;SDS011;67019;51.034;3.728;2023-05-07T00:57:02;18.42;;;6.85;;
77828;SDS011;67019;51.034;3.728;2023-05-07T00:59:35;9.48;;;4.20;;
77828;SDS011;67019;51.034;3.728;2023-05-07T01:01:59;13.62;;;4.30;;
77828;SDS011;67019;51.034;3.728;2023-05-07T01:04:27;10.20;;;4.33;;
77828;SDS011;67019;51.034;3.728;2023-05-07T01:06:56;11.78;;;4.37;;
77828;SDS011;67019;51.034;3.728;2023-05-07T01:09:24;13.25;;;4.00;;
77828;SDS011;67019;51.034;3.728;2023-05-07T01:11:52;12.25;;;4.47;;
77828;SDS011;67019;51.034;3.728;2023-05-07T01:14:21;16.27;;;5.60;;
77828;SDS011;67019;51.034;3.728;2023-05-07T01:16:48;10.30;;;4.45;;
77828;SDS011;67019;51.034;3.728;2023-05-07T01:19:17;12.85;;;5.75;;
77828;SDS011;67019;51.034;3.728;2023-05-07T01:21:47;10.90;;;4.03;;
77828;SDS011;67019;51.034;3.728;2023-05-07T01:24:15;14.63;;;4.47;;
77828;SDS011;67019;51.034;3.728;2023-05-07T01:26:44;11.10;;;4.08;;
77828;SDS011;67019;51.034;3.728;2023-05-07T01:29:12;17.42;;;4.53;;
77828;SDS011;67019;51.034;3.728;2023-05-07T01:31:41;11.70;;;4.75;;
77828;SDS011;67019;51.034;3.728;2023-05-07T01:34:09;11.03;;;4.22;;
77828;SDS011;67019;51.034;3.728;2023-05-07T01:36:39;10.88;;;4.60;;
77828;SDS011;67019;51.034;3.728;2023-05-07T01:39:09;12.20;;;4.22;;
77828;SDS011;67019;51.034;3.728;2023-05-07T01:41:37;14.98;;;5.35;;
77828;SDS011;67019;51.034;3.728;2023-05-07T01:44:04;14.47;;;4.15;;
77828;SDS011;67019;51.034;3.728;2023-05-07T01:46:32;16.27;;;5.25;;
77828;SDS011;67019;51.034;3.728;2023-05-07T01:49:01;13.55;;;4.30;;
77828;SDS011;67019;51.034;3.728;2023-05-07T01:51:28;16.70;;;5.10;;
77828;SDS011;67019;51.034;3.728;2023-05-07T01:53:57;13.50;;;4.40;;
77828;SDS011;67019;51.034;3.728;2023-05-07T01:56:28;12.68;;;4.53;;
77828;SDS011;67019;51.034;3.728;2023-05-07T01:58:55;11.33;;;5.17;;
77828;SDS011;67019;51.034;3.728;2023-05-07T02:01:23;11.40;;;4.45;;
77828;SDS011;67019;51.034;3.728;2023-05-07T02:03:51;11.12;;;5.00;;
77828;SDS011;67019;51.034;3.728;2023-05-07T02:06:19;12.80;;;5.05;;
77828;SDS011;67019;51.034;3.728;2023-05-07T02:08:47;13.03;;;5.53;;
77828;SDS011;67019;51.034;3.728;2023-05-07T02:11:14;12.00;;;5.05;;
77828;SDS011;67019;51.034;3.728;2023-05-07T02:13:42;20.43;;;5.67;;
77828;SDS011;67019;51.034;3.728;2023-05-07T02:16:10;12.03;;;5.20;;
77828;SDS011;67019;51.034;3.728;2023-05-07T02:18:39;10.88;;;5.42;;
77828;SDS011;67019;51.034;3.728;2023-05-07T02:21:06;16.82;;;5.62;;
77828;SDS011;67019;51.034;3.728;2023-05-07T02:23:34;14.87;;;5.92;;
77828;SDS011;67019;51.034;3.728;2023-05-07T02:26:03;12.82;;;4.72;;
77828;SDS011;67019;51.034;3.728;2023-05-07T02:28:31;9.00;;;4.75;;
77828;SDS011;67019;51.034;3.728;2023-05-07T02:31:02;13.20;;;5.55;;
77828;SDS011;67019;51.034;3.728;2023-05-07T02:33:30;20.97;;;6.35;;
77828;SDS011;67019;51.034;3.728;2023-05-07T02:36:04;11.68;;;4.85;;
77828;SDS011;67019;51.034;3.728;2023-05-07T02:38:33;11.95;;;6.15;;
77828;SDS011;67019;51.034;3.728;2023-05-07T02:41:01;16.07;;;5.85;;
77828;SDS011;67019;51.034;3.728;2023-05-07T02:43:28;17.48;;;5.58;;
77828;SDS011;67019;51.034;3.728;2023-05-07T02:46:00;14.00;;;5.75;;
77828;SDS011;67019;51.034;3.728;2023-05-07T02:48:34;12.55;;;4.35;;
77828;SDS011;67019;51.034;3.728;2023-05-07T02:51:02;11.97;;;5.30;;
77828;SDS011;67019;51.034;3.728;2023-05-07T02:53:29;13.65;;;6.08;;
77828;SDS011;67019;51.034;3.728;2023-05-07T02:55:58;14.13;;;5.25;;
77828;SDS011;67019;51.034;3.728;2023-05-07T02:58:28;18.42;;;5.50;;
77828;SDS011;67019;51.034;3.728;2023-05-07T03:00:55;18.12;;;5.80;;
77828;SDS011;67019;51.034;3.728;2023-05-07T03:03:23;13.68;;;6.10;;
77828;SDS011;67019;51.034;3.728;2023-05-07T03:05:50;14.70;;;5.50;;
77828;SDS011;67019;51.034;3.728;2023-05-07T03:08:18;15.08;;;5.70;;
77828;SDS011;67019;51.034;3.728;2023-05-07T03:10:46;18.90;;;6.35;;
77828;SDS011;67019;51.034;3.728;2023-05-07T03:13:13;16.65;;;5.95;;
77828;SDS011;67019;51.034;3.728;2023-05-07T03:15:41;17.17;;;7.28;;
77828;SDS011;67019;51.034;3.728;2023-05-07T03:18:09;12.80;;;6.25;;
77828;SDS011;67019;51.034;3.728;2023-05-07T03:20:36;13.35;;;6.78;;
77828;SDS011;67019;51.034;3.728;2023-05-07T03:23:04;17.12;;;6.83;;
77828;SDS011;67019;51.034;3.728;2023-05-07T03:25:32;10.70;;;5.17;;
77828;SDS011;67019;51.034;3.728;2023-05-07T03:28:01;11.57;;;5.78;;
77828;SDS011;67019;51.034;3.728;2023-05-07T03:30:28;13.72;;;5.62;;
77828;SDS011;67019;51.034;3.728;2023-05-07T03:32:56;17.07;;;5.75;;
77828;SDS011;67019;51.034;3.728;2023-05-07T03:35:24;13.85;;;5.20;;
77828;SDS011;67019;51.034;3.728;2023-05-07T03:37:51;14.25;;;5.95;;
77828;SDS011;67019;51.034;3.728;2023-05-07T03:40:19;15.60;;;6.60;;
77828;SDS011;67019;51.034;3.728;2023-05-07T03:42:46;14.55;;;5.80;;
77828;SDS011;67019;51.034;3.728;2023-05-07T03:45:14;14.90;;;6.12;;
77828;SDS011;67019;51.034;3.728;2023-05-07T03:47:42;18.23;;;5.95;;
77828;SDS011;67019;51.034;3.728;2023-05-07T03:50:09;12.85;;;5.92;;
77828;SDS011;67019;51.034;3.728;2023-05-07T03:52:37;12.80;;;6.10;;
77828;SDS011;67019;51.034;3.728;2023-05-07T03:55:05;11.28;;;6.80;;
77828;SDS011;67019;51.034;3.728;2023-05-07T03:57:33;17.35;;;7.55;;
77828;SDS011;67019;51.034;3.728;2023-05-07T04:00:00;16.87;;;8.43;;
77828;SDS011;67019;51.034;3.728;2023-05-07T04:02:29;15.20;;;6.25;;
77828;SDS011;67019;51.034;3.728;2023-05-07T04:04:57;15.95;;;7.03;;
77828;SDS011;67019;51.034;3.728;2023-05-07T04:07:25;21.07;;;7.25;;
77828;SDS011;67019;51.034;3.728;2023-05-07T04:09:52;22.32;;;7.45;;
77828;SDS011;67019;51.034;3.728;2023-05-07T04:12:20;17.37;;;6.55;;
77828;SDS011;67019;51.034;3.728;2023-05-07T04:14:47;17.62;;;7.53;;
77828;SDS011;67019;51.034;3.728;2023-05-07T04:17:15;18.92;;;6.75;;
77828;SDS011;67019;51.034;3.728;2023-05-07T04:19:43;15.18;;;8.30;;
77828;SDS011;67019;51.034;3.728;2023-05-07T04:22:11;19.00;;;6.62;;
77828;SDS011;67019;51.034;3.728;2023-05-07T04:24:38;11.80;;;7.28;;
77828;SDS011;67019;51.034;3.728;2023-05-07T04:27:07;19.75;;;7.53;;
77828;SDS011;67019;51.034;3.728;2023-05-07T04:29:35;17.73;;;6.97;;
77828;SDS011;67019;51.034;3.728;2023-05-07T04:32:05;16.10;;;6.87;;
77828;SDS011;67019;51.034;3.728;2023-05-07T04:34:35;13.90;;;6.37;;
77828;SDS011;67019;51.034;3.728;2023-05-07T04:37:02;13.75;;;6.10;;
77828;SDS011;67019;51.034;3.728;2023-05-07T04:39:30;13.28;;;6.12;;
77828;SDS011;67019;51.034;3.728;2023-05-07T04:44:27;12.60;;;5.65;;
77828;SDS011;67019;51.034;3.728;2023-05-07T04:46:56;15.48;;;5.95;;
77828;SDS011;67019;51.034;3.728;2023-05-07T04:49:24;15.88;;;6.97;;
77828;SDS011;67019;51.034;3.728;2023-05-07T04:51:52;12.82;;;6.45;;
77828;SDS011;67019;51.034;3.728;2023-05-07T04:54:19;12.10;;;7.95;;
77828;SDS011;67019;51.034;3.728;2023-05-07T04:56:47;15.18;;;7.00;;
77828;SDS011;67019;51.034;3.728;2023-05-07T04:59:14;17.40;;;7.47;;
77828;SDS011;67019;51.034;3.728;2023-05-07T05:01:42;13.13;;;6.87;;
77828;SDS011;67019;51.034;3.728;2023-05-07T05:04:10;18.27;;;6.30;;
77828;SDS011;67019;51.034;3.728;2023-05-07T05:06:37;16.97;;;7.25;;
77828;SDS011;67019;51.034;3.728;2023-05-07T05:09:05;10.85;;;6.58;;
77828;SDS011;67019;51.034;3.728;2023-05-07T05:11:33;10.58;;;6.25;;
77828;SDS011;67019;51.034;3.728;2023-05-07T05:14:00;10.85;;;6.47;;
77828;SDS011;67019;51.034;3.728;2023-05-07T05:16:28;17.75;;;7.62;;
77828;SDS011;67019;51.034;3.728;2023-05-07T05:18:56;16.25;;;6.70;;
77828;SDS011;67019;51.034;3.728;2023-05-07T05:21:23;21.48;;;7.22;;
77828;SDS011;67019;51.034;3.728;2023-05-07T05:23:51;22.25;;;6.47;;
77828;SDS011;67019;51.034;3.728;2023-05-07T05:26:18;12.75;;;5.62;;
77828;SDS011;67019;51.034;3.728;2023-05-07T05:28:47;20.88;;;7.00;;
77828;SDS011;67019;51.034;3.728;2023-05-07T05:31:14;17.05;;;5.55;;
77828;SDS011;67019;51.034;3.728;2023-05-07T05:33:42;26.52;;;9.03;;
77828;SDS011;67019;51.034;3.728;2023-05-07T05:36:10;13.05;;;6.30;;
77828;SDS011;67019;51.034;3.728;2023-05-07T05:38:39;17.85;;;5.83;;
77828;SDS011;67019;51.034;3.728;2023-05-07T05:41:06;12.73;;;5.83;;
77828;SDS011;67019;51.034;3.728;2023-05-07T05:43:34;14.25;;;6.72;;
77828;SDS011;67019;51.034;3.728;2023-05-07T05:46:01;18.55;;;6.37;;
77828;SDS011;67019;51.034;3.728;2023-05-07T05:48:32;22.60;;;6.95;;
77828;SDS011;67019;51.034;3.728;2023-05-07T05:50:59;14.53;;;6.30;;
77828;SDS011;67019;51.034;3.728;2023-05-07T05:53:28;15.13;;;6.60;;
77828;SDS011;67019;51.034;3.728;2023-05-07T05:55:56;16.60;;;7.22;;
77828;SDS011;67019;51.034;3.728;2023-05-07T05:58:23;16.50;;;7.35;;
77828;SDS011;67019;51.034;3.728;2023-05-07T06:00:51;22.50;;;8.13;;
77828;SDS011;67019;51.034;3.728;2023-05-07T06:03:20;14.43;;;8.23;;
77828;SDS011;67019;51.034;3.728;2023-05-07T06:05:48;14.10;;;8.35;;
77828;SDS011;67019;51.034;3.728;2023-05-07T06:08:15;17.32;;;8.13;;
77828;SDS011;67019;51.034;3.728;2023-05-07T06:10:45;17.48;;;8.33;;
77828;SDS011;67019;51.034;3.728;2023-05-07T06:13:16;14.43;;;7.35;;
77828;SDS011;67019;51.034;3.728;2023-05-07T06:15:44;19.98;;;8.28;;
77828;SDS011;67019;51.034;3.728;2023-05-07T06:18:13;13.75;;;7.45;;
77828;SDS011;67019;51.034;3.728;2023-05-07T06:20:40;17.77;;;8.88;;
77828;SDS011;67019;51.034;3.728;2023-05-07T06:23:08;18.05;;;8.70;;
77828;SDS011;67019;51.034;3.728;2023-05-07T06:25:36;13.85;;;8.70;;
77828;SDS011;67019;51.034;3.728;2023-05-07T06:28:03;23.75;;;8.95;;
77828;SDS011;67019;51.034;3.728;2023-05-07T06:30:31;22.37;;;10.32;;
77828;SDS011;67019;51.034;3.728;2023-05-07T06:32:58;18.15;;;9.75;;
77828;SDS011;67019;51.034;3.728;2023-05-07T06:35:26;16.70;;;8.53;;
77828;SDS011;67019;51.034;3.728;2023-05-07T06:37:53;14.83;;;8.43;;
77828;SDS011;67019;51.034;3.728;2023-05-07T06:40:21;20.50;;;8.50;;
77828;SDS011;67019;51.034;3.728;2023-05-07T06:42:49;15.90;;;8.33;;
77828;SDS011;67019;51.034;3.728;2023-05-07T06:45:16;17.62;;;7.92;;
77828;SDS011;67019;51.034;3.728;2023-05-07T06:47:44;14.45;;;6.92;;
77828;SDS011;67019;51.034;3.728;2023-05-07T06:50:13;13.13;;;7.30;;
77828;SDS011;67019;51.034;3.728;2023-05-07T06:52:42;16.37;;;7.75;;
77828;SDS011;67019;51.034;3.728;2023-05-07T06:55:10;10.80;;;5.87;;
77828;SDS011;67019;51.034;3.728;2023-05-07T06:57:38;12.50;;;5.55;;
77828;SDS011;67019;51.034;3.728;2023-05-07T07:00:06;13.48;;;7.00;;
77828;SDS011;67019;51.034;3.728;2023-05-07T07:02:36;11.50;;;6.72;;
77828;SDS011;67019;51.034;3.728;2023-05-07T07:05:04;9.28;;;5.92;;
77828;SDS011;67019;51.034;3.728;2023-05-07T07:07:32;9.85;;;6.00;;
77828;SDS011;67019;51.034;3.728;2023-05-07T07:10:00;9.70;;;5.90;;
77828;SDS011;67019;51.034;3.728;2023-05-07T07:12:29;12.95;;;6.58;;
77828;SDS011;67019;51.034;3.728;2023-05-07T07:14:59;12.03;;;6.75;;
77828;SDS011;67019;51.034;3.728;2023-05-07T07:17:26;11.95;;;6.33;;
77828;SDS011;67019;51.034;3.728;2023-05-07T07:19:54;13.60;;;6.25;;
77828;SDS011;67019;51.034;3.728;2023-05-07T07:22:21;12.98;;;5.95;;
77828;SDS011;67019;51.034;3.728;2023-05-07T07:24:49;9.55;;;6.05;;
77828;SDS011;67019;51.034;3.728;2023-05-07T07:27:18;9.23;;;5.58;;
77828;SDS011;67019;51.034;3.728;2023-05-07T07:29:45;9.25;;;5.20;;
77828;SDS011;67019;51.034;3.728;2023-05-07T07:32:15;15.98;;;6.12;;
77828;SDS011;67019;51.034;3.728;2023-05-07T07:34:51;9.08;;;4.90;;
77828;SDS011;67019;51.034;3.728;2023-05-07T07:37:15;8.23;;;5.35;;
77828;SDS011;67019;51.034;3.728;2023-05-07T07:39:45;8.70;;;5.05;;
77828;SDS011;67019;51.034;3.728;2023-05-07T07:42:15;15.43;;;5.45;;
77828;SDS011;67019;51.034;3.728;2023-05-07T07:44:44;9.25;;;4.80;;
77828;SDS011;67019;51.034;3.728;2023-05-07T07:47:14;15.38;;;5.55;;
77828;SDS011;67019;51.034;3.728;2023-05-07T07:49:42;14.83;;;5.45;;
77828;SDS011;67019;51.034;3.728;2023-05-07T07:52:09;15.00;;;6.05;;
77828;SDS011;67019;51.034;3.728;2023-05-07T07:54:37;13.20;;;5.55;;
77828;SDS011;67019;51.034;3.728;2023-05-07T07:57:05;13.53;;;5.17;;
77828;SDS011;67019;51.034;3.728;2023-05-07T07:59:39;12.93;;;5.65;;
77828;SDS011;67019;51.034;3.728;2023-05-07T08:02:09;12.53;;;5.40;;
77828;SDS011;67019;51.034;3.728;2023-05-07T08:04:39;11.35;;;5.33;;
77828;SDS011;67019;51.034;3.728;2023-05-07T08:07:10;11.93;;;5.45;;
77828;SDS011;67019;51.034;3.728;2023-05-07T08:09:40;10.53;;;5.72;;
77828;SDS011;67019;51.034;3.728;2023-05-07T08:12:09;13.22;;;5.17;;
77828;SDS011;67019;51.034;3.728;2023-05-07T08:14:44;11.20;;;4.67;;
77828;SDS011;67019;51.034;3.728;2023-05-07T08:17:08;12.20;;;5.83;;
77828;SDS011;67019;51.034;3.728;2023-05-07T08:19:41;9.15;;;4.45;;
77828;SDS011;67019;51.034;3.728;2023-05-07T08:22:10;13.50;;;5.67;;
77828;SDS011;67019;51.034;3.728;2023-05-07T08:24:40;12.78;;;4.37;;
77828;SDS011;67019;51.034;3.728;2023-05-07T08:27:07;13.03;;;5.97;;
77828;SDS011;67019;51.034;3.728;2023-05-07T08:29:36;20.35;;;7.62;;
77828;SDS011;67019;51.034;3.728;2023-05-07T08:32:04;14.78;;;5.40;;
77828;SDS011;67019;51.034;3.728;2023-05-07T08:34:31;11.00;;;5.50;;
77828;SDS011;67019;51.034;3.728;2023-05-07T08:36:59;9.13;;;4.87;;
77828;SDS011;67019;51.034;3.728;2023-05-07T08:39:26;11.45;;;5.95;;
77828;SDS011;67019;51.034;3.728;2023-05-07T08:41:54;13.62;;;5.70;;
77828;SDS011;67019;51.034;3.728;2023-05-07T08:44:23;12.23;;;6.03;;
77828;SDS011;67019;51.034;3.728;2023-05-07T08:46:53;10.58;;;6.30;;
77828;SDS011;67019;51.034;3.728;2023-05-07T08:49:23;8.75;;;4.28;;
77828;SDS011;67019;51.034;3.728;2023-05-07T08:51:52;12.93;;;4.53;;
77828;SDS011;67019;51.034;3.728;2023-05-07T08:54:20;11.12;;;4.72;;
77828;SDS011;67019;51.034;3.728;2023-05-07T08:56:48;11.18;;;4.17;;
77828;SDS011;67019;51.034;3.728;2023-05-07T08:59:16;9.15;;;5.00;;
77828;SDS011;67019;51.034;3.728;2023-05-07T09:01:44;9.93;;;5.12;;
77828;SDS011;67019;51.034;3.728;2023-05-07T09:04:11;10.70;;;5.80;;
77828;SDS011;67019;51.034;3.728;2023-05-07T09:06:39;10.93;;;5.80;;
77828;SDS011;67019;51.034;3.728;2023-05-07T09:09:07;12.70;;;5.83;;
77828;SDS011;67019;51.034;3.728;2023-05-07T09:11:35;12.60;;;5.40;;
77828;SDS011;67019;51.034;3.728;2023-05-07T09:14:03;11.75;;;5.17;;
77828;SDS011;67019;51.034;3.728;2023-05-07T09:16:32;11.83;;;5.65;;
77828;SDS011;67019;51.034;3.728;2023-05-07T09:19:00;10.32;;;6.37;;
77828;SDS011;67019;51.034;3.728;2023-05-07T09:21:29;9.15;;;4.70;;
77828;SDS011;67019;51.034;3.728;2023-05-07T09:23:58;9.00;;;3.95;;
77828;SDS011;67019;51.034;3.728;2023-05-07T09:26:26;11.53;;;4.77;;
77828;SDS011;67019;51.034;3.728;2023-05-07T09:28:54;10.63;;;4.87;;
77828;SDS011;67019;51.034;3.728;2023-05-07T09:31:23;10.48;;;4.05;;
77828;SDS011;67019;51.034;3.728;2023-05-07T09:33:52;9.68;;;4.28;;
77828;SDS011;67019;51.034;3.728;2023-05-07T09:36:23;10.35;;;4.72;;
77828;SDS011;67019;51.034;3.728;2023-05-07T09:38:53;8.60;;;4.78;;
77828;SDS011;67019;51.034;3.728;2023-05-07T09:41:22;9.65;;;4.42;;
77828;SDS011;67019;51.034;3.728;2023-05-07T09:43:53;11.88;;;5.50;;
77828;SDS011;67019;51.034;3.728;2023-05-07T09:46:25;13.18;;;5.58;;
77828;SDS011;67019;51.034;3.728;2023-05-07T09:51:34;10.25;;;5.33;;
77828;SDS011;67019;51.034;3.728;2023-05-07T09:54:04;8.78;;;5.35;;
77828;SDS011;67019;51.034;3.728;2023-05-07T09:56:32;13.05;;;6.05;;
77828;SDS011;67019;51.034;3.728;2023-05-07T09:59:00;12.43;;;6.28;;
77828;SDS011;67019;51.034;3.728;2023-05-07T10:01:30;13.62;;;6.42;;
77828;SDS011;67019;51.034;3.728;2023-05-07T10:03:58;14.63;;;5.33;;
77828;SDS011;67019;51.034;3.728;2023-05-07T10:06:29;9.78;;;5.35;;
77828;SDS011;67019;51.034;3.728;2023-05-07T10:08:57;9.65;;;5.78;;
77828;SDS011;67019;51.034;3.728;2023-05-07T10:11:26;8.00;;;4.10;;
77828;SDS011;67019;51.034;3.728;2023-05-07T10:13:54;10.85;;;3.83;;
77828;SDS011;67019;51.034;3.728;2023-05-07T10:16:22;11.93;;;4.90;;
77828;SDS011;67019;51.034;3.728;2023-05-07T10:18:51;12.95;;;4.62;;
77828;SDS011;67019;51.034;3.728;2023-05-07T10:21:21;7.50;;;4.25;;
77828;SDS011;67019;51.034;3.728;2023-05-07T10:23:52;12.57;;;5.17;;
77828;SDS011;67019;51.034;3.728;2023-05-07T10:28:50;9.38;;;4.80;;
77828;SDS011;67019;51.034;3.728;2023-05-07T10:34:14;4.67;;;2.80;;
77828;SDS011;67019;51.034;3.728;2023-05-07T10:36:39;8.50;;;3.75;;
77828;SDS011;67019;51.034;3.728;2023-05-07T10:39:08;7.05;;;3.20;;
77828;SDS011;67019;51.034;3.728;2023-05-07T10:41:36;6.20;;;2.55;;
77828;SDS011;67019;51.034;3.728;2023-05-07T10:44:03;7.20;;;3.45;;
77828;SDS011;67019;51.034;3.728;2023-05-07T10:46:32;8.45;;;3.72;;
77828;SDS011;67019;51.034;3.728;2023-05-07T10:51:33;5.03;;;3.05;;
77828;SDS011;67019;51.034;3.728;2023-05-07T10:56:43;8.95;;;4.15;;
77828;SDS011;67019;51.034;3.728;2023-05-07T11:01:57;5.37;;;2.15;;
77828;SDS011;67019;51.034;3.728;2023-05-07T11:04:28;6.05;;;3.10;;
77828;SDS011;67019;51.034;3.728;2023-05-07T11:15:10;4.62;;;2.52;;
77828;SDS011;67019;51.034;3.728;2023-05-07T11:17:57;5.70;;;2.83;;
77828;SDS011;67019;51.034;3.728;2023-05-07T11:28:39;4.15;;;2.92;;
77828;SDS011;67019;51.034;3.728;2023-05-07T11:31:05;5.17;;;2.83;;
77828;SDS011;67019;51.034;3.728;2023-05-07T11:33:33;8.20;;;3.15;;
77828;SDS011;67019;51.034;3.728;2023-05-07T11:36:02;6.95;;;2.95;;
77828;SDS011;67019;51.034;3.728;2023-05-07T11:38:30;3.35;;;2.15;;
77828;SDS011;67019;51.034;3.728;2023-05-07T11:40:59;5.20;;;2.25;;
77828;SDS011;67019;51.034;3.728;2023-05-07T11:43:28;3.60;;;2.33;;
77828;SDS011;67019;51.034;3.728;2023-05-07T11:46:19;7.50;;;2.60;;
77828;SDS011;67019;51.034;3.728;2023-05-07T11:48:36;5.62;;;2.77;;
77828;SDS011;67019;51.034;3.728;2023-05-07T11:51:07;5.10;;;2.80;;
77828;SDS011;67019;51.034;3.728;2023-05-07T11:53:41;7.95;;;3.30;;
77828;SDS011;67019;51.034;3.728;2023-05-07T11:56:10;4.47;;;2.65;;
77828;SDS011;67019;51.034;3.728;2023-05-07T11:58:39;8.13;;;3.75;;
77828;SDS011;67019;51.034;3.728;2023-05-07T12:01:13;6.72;;;3.27;;
77828;SDS011;67019;51.034;3.728;2023-05-07T12:03:41;6.85;;;2.72;;
77828;SDS011;67019;51.034;3.728;2023-05-07T12:06:11;5.15;;;2.52;;
77828;SDS011;67019;51.034;3.728;2023-05-07T12:08:41;3.75;;;2.45;;
77828;SDS011;67019;51.034;3.728;2023-05-07T12:11:15;6.95;;;2.58;;
77828;SDS011;67019;51.034;3.728;2023-05-07T12:13:44;7.42;;;2.27;;
77828;SDS011;67019;51.034;3.728;2023-05-07T12:16:12;13.15;;;2.90;;
77828;SDS011;67019;51.034;3.728;2023-05-07T12:18:41;4.28;;;2.50;;
77828;SDS011;67019;51.034;3.728;2023-05-07T12:21:09;7.67;;;3.02;;
77828;SDS011;67019;51.034;3.728;2023-05-07T12:23:37;6.20;;;2.85;;
77828;SDS011;67019;51.034;3.728;2023-05-07T12:26:05;4.42;;;3.10;;
77828;SDS011;67019;51.034;3.728;2023-05-07T12:28:37;3.92;;;3.00;;
77828;SDS011;67019;51.034;3.728;2023-05-07T12:31:05;5.40;;;3.10;;
77828;SDS011;67019;51.034;3.728;2023-05-07T12:36:04;5.22;;;1.90;;
77828;SDS011;67019;51.034;3.728;2023-05-07T12:38:38;6.85;;;2.05;;
77828;SDS011;67019;51.034;3.728;2023-05-07T12:41:09;2.37;;;1.82;;
77828;SDS011;67019;51.034;3.728;2023-05-07T12:43:39;3.67;;;2.15;;
77828;SDS011;67019;51.034;3.728;2023-05-07T12:46:08;14.15;;;4.30;;
77828;SDS011;67019;51.034;3.728;2023-05-07T12:48:37;4.55;;;1.95;;
77828;SDS011;67019;51.034;3.728;2023-05-07T12:51:05;3.00;;;1.80;;
77828;SDS011;67019;51.034;3.728;2023-05-07T12:53:38;3.97;;;2.17;;
77828;SDS011;67019;51.034;3.728;2023-05-07T12:56:05;5.00;;;2.87;;
77828;SDS011;67019;51.034;3.728;2023-05-07T12:58:33;5.97;;;2.50;;
77828;SDS011;67019;51.034;3.728;2023-05-07T13:01:06;2.70;;;2.45;;
77828;SDS011;67019;51.034;3.728;2023-05-07T13:03:36;2.45;;;2.20;;
77828;SDS011;67019;51.034;3.728;2023-05-07T13:06:05;5.33;;;2.45;;
77828;SDS011;67019;51.034;3.728;2023-05-07T13:08:39;3.25;;;2.58;;
77828;SDS011;67019;51.034;3.728;2023-05-07T13:11:09;4.33;;;2.27;;
77828;SDS011;67019;51.034;3.728;2023-05-07T13:13:38;5.95;;;2.42;;
77828;SDS011;67019;51.034;3.728;2023-05-07T13:16:08;4.87;;;2.40;;
77828;SDS011;67019;51.034;3.728;2023-05-07T13:18:38;5.60;;;2.22;;
77828;SDS011;67019;51.034;3.728;2023-05-07T13:21:06;3.70;;;2.27;;
77828;SDS011;67019;51.034;3.728;2023-05-07T13:23:36;4.53;;;2.58;;
77828;SDS011;67019;51.034;3.728;2023-05-07T13:26:04;6.55;;;2.62;;
77828;SDS011;67019;51.034;3.728;2023-05-07T13:28:31;4.55;;;2.45;;
77828;SDS011;67019;51.034;3.728;2023-05-07T13:30:59;4.37;;;2.55;;
77828;SDS011;67019;51.034;3.728;2023-05-07T13:33:26;4.00;;;2.62;;
77828;SDS011;67019;51.034;3.728;2023-05-07T13:35:54;5.22;;;2.72;;
77828;SDS011;67019;51.034;3.728;2023-05-07T13:38:22;3.85;;;2.50;;
77828;SDS011;67019;51.034;3.728;2023-05-07T13:40:50;4.35;;;2.40;;
77828;SDS011;67019;51.034;3.728;2023-05-07T13:43:20;4.50;;;2.62;;
77828;SDS011;67019;51.034;3.728;2023-05-07T13:45:47;5.17;;;3.47;;
77828;SDS011;67019;51.034;3.728;2023-05-07T13:48:14;5.83;;;4.00;;
77828;SDS011;67019;51.034;3.728;2023-05-07T13:50:42;5.25;;;2.95;;
77828;SDS011;67019;51.034;3.728;2023-05-07T13:53:10;3.80;;;3.02;;
77828;SDS011;67019;51.034;3.728;2023-05-07T13:55:37;5.28;;;3.02;;
77828;SDS011;67019;51.034;3.728;2023-05-07T13:58:05;7.62;;;3.30;;
77828;SDS011;67019;51.034;3.728;2023-05-07T14:00:33;4.53;;;3.02;;
77828;SDS011;67019;51.034;3.728;2023-05-07T14:03:01;9.13;;;4.00;;
77828;SDS011;67019;51.034;3.728;2023-05-07T14:05:28;8.25;;;3.17;;
77828;SDS011;67019;51.034;3.728;2023-05-07T14:07:59;6.10;;;3.25;;
77828;SDS011;67019;51.034;3.728;2023-05-07T14:10:26;4.72;;;2.95;;
77828;SDS011;67019;51.034;3.728;2023-05-07T14:12:54;7.58;;;3.83;;
77828;SDS011;67019;51.034;3.728;2023-05-07T14:15:22;7.12;;;3.22;;
77828;SDS011;67019;51.034;3.728;2023-05-07T14:17:49;8.45;;;4.40;;
77828;SDS011;67019;51.034;3.728;2023-05-07T14:20:17;5.97;;;4.15;;
77828;SDS011;67019;51.034;3.728;2023-05-07T14:22:45;7.67;;;4.40;;
77828;SDS011;67019;51.034;3.728;2023-05-07T14:25:12;9.43;;;5.70;;
77828;SDS011;67019;51.034;3.728;2023-05-07T14:27:42;8.20;;;5.35;;
77828;SDS011;67019;51.034;3.728;2023-05-07T14:30:09;6.55;;;5.20;;
77828;SDS011;67019;51.034;3.728;2023-05-07T14:32:37;10.05;;;7.90;;
77828;SDS011;67019;51.034;3.728;2023-05-07T14:35:06;8.60;;;6.58;;
77828;SDS011;67019;51.034;3.728;2023-05-07T14:37:34;10.68;;;5.85;;
77828;SDS011;67019;51.034;3.728;2023-05-07T14:40:01;10.25;;;6.22;;
77828;SDS011;67019;51.034;3.728;2023-05-07T14:42:29;8.78;;;5.50;;
77828;SDS011;67019;51.034;3.728;2023-05-07T14:44:57;10.98;;;7.10;;
77828;SDS011;67019;51.034;3.728;2023-05-07T14:47:26;10.08;;;6.70;;
77828;SDS011;67019;51.034;3.728;2023-05-07T14:49:54;7.25;;;5.70;;
77828;SDS011;67019;51.034;3.728;2023-05-07T14:52:23;10.13;;;6.05;;
77828;SDS011;67019;51.034;3.728;2023-05-07T14:54:51;9.30;;;5.47;;
77828;SDS011;67019;51.034;3.728;2023-05-07T14:57:19;8.70;;;6.00;;
77828;SDS011;67019;51.034;3.728;2023-05-07T14:59:47;9.18;;;5.47;;
77828;SDS011;67019;51.034;3.728;2023-05-07T15:02:14;7.78;;;5.70;;
77828;SDS011;67019;51.034;3.728;2023-05-07T15:04:42;11.65;;;6.35;;
77828;SDS011;67019;51.034;3.728;2023-05-07T15:07:14;14.23;;;7.12;;
77828;SDS011;67019;51.034;3.728;2023-05-07T15:09:42;9.25;;;6.10;;
77828;SDS011;67019;51.034;3.728;2023-05-07T15:12:10;6.85;;;6.12;;
77828;SDS011;67019;51.034;3.728;2023-05-07T15:14:38;9.15;;;5.87;;
77828;SDS011;67019;51.034;3.728;2023-05-07T15:17:06;10.08;;;5.90;;
77828;SDS011;67019;51.034;3.728;2023-05-07T15:19:37;10.08;;;6.15;;
77828;SDS011;67019;51.034;3.728;2023-05-07T15:22:04;8.78;;;5.08;;
77828;SDS011;67019;51.034;3.728;2023-05-07T15:24:33;5.75;;;4.22;;